Connexion S'enregistrer

Connexion à votre compte

Identifiant
Mot de passe
Maintenir la connexion active sur ce site

Créer un compte

Pour valider ce formulaire, vous devez remplir tous les champs.
Nom
Identifiant
Mot de passe
Répétez le mot de passe
Adresse e-mail
Répétez l'adresse e-mail

METAR/TAF de Chambéry

[source: ADDS]
METAR
LFLB 211500Z AUTO 36008KT 8000 NSC 03/M03 Q1025 NOSIG =
TAF
TAF LFLB 211100Z 2112/2212 01008KT 7000 BKN016 TEMPO 2113/2212 NSC =
SR / SS: 07:08 / 16:27 UTC (Lever/Coucher du soleil le 2017-01-21)

 

Webcam Sud en maintenance, problème en cours de résolution

Webcam de l'Aéroclub - Parking Lima et SW (réactualisation : 5min)

Cliquer ici pour une animation sur les 3 dernières heures / Cliquer sur l'image pour l'agrandir dans une nouvelle fenêtre

 

Webcam de l'Aéroclub - Manche à air et WA (réactualisation : 5min)

Cliquer ici pour une animation sur les 3 dernières heures / Cliquer sur l'image pour l'agrandir dans une nouvelle fenêtre

 

Webcam Bourget-du-Lac (en direct)